Time;durP1;ratioP1;P1;durP2;ratioP2;P2;SDS_P1;SDS_P2;PMS_P1;PMS_P2;Temp;Humidity;BMP_temperature;BMP_pressure;BME280_temperature;BME280_humidity;BME280_pressure;Samples;Min_cycle;Max_cycle;Signal;HPM_P1;HPM_P2
2021/12/31 00:02:19;;;;;;;8.20;2.90;;;14.80;99.90;;;;;;5036195;28;20228;-71
2021/12/31 00:04:45;;;;;;;6.60;2.50;;;14.80;99.90;;;;;;5035915;28;20237;-72
2021/12/31 00:07:11;;;;;;;9.13;2.87;;;14.80;99.90;;;;;;5035476;28;20253;-72
2021/12/31 00:09:38;;;;;;;4.77;2.43;;;14.80;99.90;;;;;;5036193;28;20169;-72
2021/12/31 00:12:07;;;;;;;6.60;2.60;;;14.80;99.90;;;;;;5035970;28;20174;-71
2021/12/31 00:14:33;;;;;;;5.17;2.53;;;14.90;99.90;;;;;;5035816;28;20206;-72
2021/12/31 00:16:59;;;;;;;4.33;2.50;;;14.90;99.90;;;;;;5035898;28;20188;-71
2021/12/31 00:19:28;;;;;;;8.20;2.50;;;15.00;99.90;;;;;;5035669;28;20260;-71
2021/12/31 00:21:54;;;;;;;6.87;2.80;;;15.00;99.90;;;;;;5035357;28;20174;-72
2021/12/31 00:24:22;;;;;;;4.83;2.40;;;15.10;99.90;;;;;;5035521;28;20218;-72
2021/12/31 00:26:47;;;;;;;5.67;2.43;;;15.00;99.90;;;;;;5035695;28;20699;-72
2021/12/31 00:29:13;;;;;;;4.23;2.40;;;15.00;99.90;;;;;;5035791;28;20178;-72
2021/12/31 00:31:38;;;;;;;4.73;2.93;;;15.00;99.90;;;;;;5035608;28;20212;-72
2021/12/31 00:34:04;;;;;;;7.53;2.40;;;14.90;99.90;;;;;;5035073;28;20684;-71
2021/12/31 00:36:47;;;;;;;7.93;3.07;;;14.90;99.90;;;;;;5033921;28;20194;-71
2021/12/31 00:39:14;;;;;;;6.70;2.80;;;14.90;99.90;;;;;;5035672;28;20227;-72
2021/12/31 00:41:40;;;;;;;6.03;2.80;;;14.80;99.90;;;;;;5034994;28;20178;-71
2021/12/31 00:44:05;;;;;;;7.57;2.70;;;14.70;99.90;;;;;;5034731;28;20622;-72
2021/12/31 00:46:32;;;;;;;8.40;3.10;;;14.70;99.90;;;;;;5033772;28;20217;-71
2021/12/31 00:48:58;;;;;;;8.53;2.90;;;14.60;99.90;;;;;;5035040;28;20610;-71
2021/12/31 00:51:26;;;;;;;5.97;3.00;;;14.70;99.90;;;;;;5034902;28;20178;-72
2021/12/31 00:53:52;;;;;;;4.67;2.80;;;14.60;99.90;;;;;;5035316;28;20170;-70
2021/12/31 00:56:17;;;;;;;3.43;2.60;;;14.60;99.90;;;;;;5035036;28;20243;-71
2021/12/31 00:58:43;;;;;;;4.13;2.60;;;14.60;99.90;;;;;;5035032;28;20169;-70
2021/12/31 01:01:16;;;;;;;6.97;3.30;;;14.60;99.90;;;;;;5034516;28;20181;-71
2021/12/31 01:03:41;;;;;;;7.57;3.17;;;14.50;99.90;;;;;;5034206;28;20251;-71
2021/12/31 01:06:07;;;;;;;6.33;3.07;;;14.60;99.90;;;;;;5034763;28;20242;-71
2021/12/31 01:08:33;;;;;;;9.67;3.30;;;14.50;99.90;;;;;;5033456;28;20178;-70
2021/12/31 01:10:58;;;;;;;6.37;2.97;;;14.50;99.90;;;;;;5033535;28;20177;-71
2021/12/31 01:13:32;;;;;;;4.63;2.73;;;14.40;99.90;;;;;;5034888;28;20170;-71
2021/12/31 01:16:01;;;;;;;8.70;3.30;;;14.50;99.90;;;;;;5034509;28;20617;-71
2021/12/31 01:19:44;;;;;;;6.97;3.13;;;14.50;99.90;;;;;;5034181;28;20584;-71
2021/12/31 01:21:12;;;;;;;7.27;3.40;;;14.50;99.90;;;;;;5034589;28;20302;-71
2021/12/31 01:23:38;;;;;;;6.47;2.97;;;14.50;99.90;;;;;;5034497;28;20237;-71
2021/12/31 01:26:04;;;;;;;7.93;3.20;;;14.50;99.90;;;;;;5034515;28;20201;-71
2021/12/31 01:28:29;;;;;;;6.47;3.07;;;14.40;99.90;;;;;;5034559;28;20173;-71
2021/12/31 01:30:55;;;;;;;3.23;2.90;;;14.40;99.90;;;;;;5034514;28;20166;-70
2021/12/31 01:33:20;;;;;;;8.20;3.13;;;14.40;99.90;;;;;;5033961;28;20598;-70
2021/12/31 01:35:46;;;;;;;8.70;3.30;;;14.40;99.90;;;;;;5034577;28;20174;-70
2021/12/31 01:38:12;;;;;;;7.80;3.67;;;14.40;99.90;;;;;;5034366;28;20181;-71
2021/12/31 01:40:37;;;;;;;7.63;3.30;;;14.40;99.90;;;;;;5034418;28;20194;-71
2021/12/31 01:43:03;;;;;;;7.93;3.30;;;14.40;99.90;;;;;;5034095;28;20565;-71
2021/12/31 01:45:32;;;;;;;9.70;3.60;;;14.30;99.90;;;;;;5034061;28;20610;-71
2021/12/31 01:50:28;;;;;;;6.63;3.60;;;14.20;99.90;;;;;;5034414;28;20186;-71
2021/12/31 01:52:54;;;;;;;5.00;3.53;;;14.20;99.90;;;;;;5034064;28;20174;-71
2021/12/31 01:55:22;;;;;;;9.27;3.50;;;14.10;99.90;;;;;;5033701;28;20727;-71
2021/12/31 01:57:49;;;;;;;6.20;4.00;;;14.10;99.90;;;;;;5032578;28;20526;-70
2021/12/31 02:00:15;;;;;;;8.17;3.80;;;14.00;99.90;;;;;;5033831;28;20174;-71
2021/12/31 02:02:45;;;;;;;6.20;3.70;;;14.00;99.90;;;;;;5033697;28;20219;-70
2021/12/31 02:05:11;;;;;;;8.80;3.87;;;13.90;99.90;;;;;;5033878;28;20563;-70
2021/12/31 02:07:37;;;;;;;8.03;3.57;;;13.90;99.90;;;;;;5033814;28;20210;-70
2021/12/31 02:10:04;;;;;;;7.83;4.03;;;13.80;99.90;;;;;;5033702;28;20169;-70
2021/12/31 02:12:29;;;;;;;8.27;4.23;;;13.70;99.90;;;;;;5033501;28;20170;-70
2021/12/31 02:14:55;;;;;;;10.80;4.07;;;13.70;99.90;;;;;;5033530;28;20653;-70
2021/12/31 02:17:21;;;;;;;10.97;4.20;;;13.80;99.90;;;;;;5033167;28;20178;-70
2021/12/31 02:20:17;;;;;;;9.90;4.30;;;13.70;99.90;;;;;;5032497;28;20189;-70
2021/12/31 02:22:50;;;;;;;8.57;4.43;;;13.60;99.90;;;;;;5051198;28;20182;-71
2021/12/31 02:25:18;;;;;;;8.00;4.27;;;13.70;99.90;;;;;;5051467;28;20192;-70
2021/12/31 02:27:44;;;;;;;10.07;4.40;;;13.70;99.90;;;;;;5051223;28;20227;-70
2021/12/31 02:30:11;;;;;;;11.87;4.93;;;13.60;99.90;;;;;;5034631;28;20181;-70
2021/12/31 02:32:38;;;;;;;9.80;4.37;;;13.50;99.90;;;;;;5050968;28;20278;-71
2021/12/31 02:35:06;;;;;;;12.20;5.00;;;13.50;99.90;;;;;;5051039;28;20169;-71
2021/12/31 02:37:32;;;;;;;11.17;4.40;;;13.50;99.90;;;;;;5051245;28;20185;-71
2021/12/31 02:40:00;;;;;;;9.63;4.50;;;13.50;99.90;;;;;;5051285;28;20185;-71
2021/12/31 02:42:26;;;;;;;9.20;4.50;;;13.60;99.90;;;;;;5050998;28;20227;-71
2021/12/31 02:44:54;;;;;;;8.87;4.90;;;13.60;99.90;;;;;;5050930;28;20169;-71
2021/12/31 02:47:19;;;;;;;9.37;4.53;;;13.60;99.90;;;;;;5050563;28;20676;-71
2021/12/31 02:49:47;;;;;;;9.20;4.80;;;13.50;99.90;;;;;;5051045;28;20235;-71
2021/12/31 02:52:14;;;;;;;13.10;4.60;;;13.50;99.90;;;;;;5050835;28;20193;-71
2021/12/31 02:54:46;;;;;;;7.90;4.63;;;13.50;99.90;;;;;;5050713;28;20180;-70
2021/12/31 02:57:13;;;;;;;7.33;4.77;;;13.40;99.90;;;;;;5050780;28;20766;-71
2021/12/31 02:59:40;;;;;;;7.80;4.47;;;13.40;99.90;;;;;;5037331;28;20177;-71
2021/12/31 03:02:06;;;;;;;7.73;4.43;;;13.40;99.90;;;;;;5032933;28;20185;-70
2021/12/31 03:04:35;;;;;;;7.00;4.53;;;13.40;99.90;;;;;;5031781;28;20515;-71
2021/12/31 03:07:07;;;;;;;7.13;4.50;;;13.40;99.90;;;;;;5036224;28;20213;-70
2021/12/31 03:09:35;;;;;;;11.43;4.40;;;13.30;99.90;;;;;;5037165;28;20215;-71
2021/12/31 03:12:02;;;;;;;9.43;4.83;;;13.20;99.90;;;;;;5036807;28;20223;-70
2021/12/31 03:14:29;;;;;;;9.90;4.80;;;13.20;99.90;;;;;;5035285;28;20510;-70
2021/12/31 03:16:54;;;;;;;9.33;4.60;;;13.20;99.90;;;;;;5037002;28;20182;-70
2021/12/31 03:19:21;;;;;;;11.43;4.27;;;13.20;99.90;;;;;;5036987;28;20188;-70
2021/12/31 03:21:47;;;;;;;12.90;4.87;;;13.10;99.90;;;;;;5036919;28;20537;-71
2021/12/31 03:24:13;;;;;;;8.43;4.93;;;13.10;99.90;;;;;;5036701;28;20225;-70
2021/12/31 03:26:39;;;;;;;8.27;4.37;;;13.10;99.90;;;;;;5036826;28;20296;-70
2021/12/31 03:29:05;;;;;;;7.63;4.33;;;13.10;99.90;;;;;;5036417;28;20630;-70
2021/12/31 03:31:31;;;;;;;15.63;4.60;;;13.10;99.90;;;;;;5036993;28;20186;-70
2021/12/31 03:33:56;;;;;;;9.93;4.80;;;13.10;99.90;;;;;;5036711;28;20247;-69
2021/12/31 03:36:22;;;;;;;7.37;4.50;;;13.10;99.90;;;;;;5037047;28;20268;-70
2021/12/31 03:38:48;;;;;;;10.67;4.83;;;13.00;99.90;;;;;;5036780;28;20201;-69
2021/12/31 03:41:14;;;;;;;8.13;4.30;;;13.00;99.90;;;;;;5036159;28;20676;-70
2021/12/31 03:43:39;;;;;;;10.83;4.73;;;13.00;99.90;;;;;;5035976;28;20177;-69
2021/12/31 03:46:07;;;;;;;8.77;4.70;;;12.90;99.90;;;;;;5036284;28;20216;-70
2021/12/31 03:48:32;;;;;;;7.90;4.00;;;12.90;99.90;;;;;;5036457;28;20174;-70
2021/12/31 03:50:58;;;;;;;8.33;4.30;;;12.90;99.90;;;;;;5036306;28;20178;-70
2021/12/31 03:53:24;;;;;;;9.37;4.17;;;12.90;99.90;;;;;;5036185;28;20216;-70
2021/12/31 03:55:49;;;;;;;8.10;4.20;;;12.90;99.90;;;;;;5036074;28;20194;-70
2021/12/31 03:58:15;;;;;;;6.80;3.60;;;12.90;99.90;;;;;;5035830;28;20170;-70
2021/12/31 04:00:41;;;;;;;6.30;3.60;;;12.90;99.90;;;;;;5036252;28;20635;-70
2021/12/31 04:03:11;;;;;;;5.70;3.90;;;12.90;99.90;;;;;;5036096;28;20166;-69
2021/12/31 04:05:39;;;;;;;7.40;3.90;;;12.90;99.90;;;;;;5036215;28;20178;-70
2021/12/31 04:08:05;;;;;;;7.37;3.73;;;12.80;99.90;;;;;;5036118;28;20734;-70
2021/12/31 04:10:31;;;;;;;7.60;3.40;;;12.80;99.90;;;;;;5035746;28;20691;-70
2021/12/31 04:12:57;;;;;;;6.80;3.93;;;12.80;99.90;;;;;;5035232;28;20174;-70
2021/12/31 04:15:23;;;;;;;8.63;4.10;;;12.80;99.90;;;;;;5034627;28;20170;-70
2021/12/31 04:17:48;;;;;;;6.93;3.40;;;12.80;99.90;;;;;;5035914;28;20173;-70
2021/12/31 04:20:32;;;;;;;7.47;3.33;;;12.80;99.90;;;;;;5035764;28;20201;-71
2021/12/31 04:22:58;;;;;;;5.07;3.70;;;12.80;99.90;;;;;;5035279;28;20249;-70
2021/12/31 04:25:24;;;;;;;3.73;3.20;;;12.80;99.90;;;;;;5035561;28;20165;-70
2021/12/31 04:27:51;;;;;;;5.23;3.53;;;12.80;99.90;;;;;;5035403;28;20279;-70
2021/12/31 04:30:16;;;;;;;8.77;3.53;;;12.90;99.90;;;;;;5035571;28;20173;-70
2021/12/31 04:32:42;;;;;;;6.70;3.40;;;12.80;99.90;;;;;;5035268;28;20607;-71
2021/12/31 04:35:13;;;;;;;8.50;3.47;;;12.70;99.90;;;;;;5035300;28;20204;-70
2021/12/31 04:37:41;;;;;;;4.97;3.20;;;12.70;99.90;;;;;;5035631;28;20269;-69
2021/12/31 04:40:08;;;;;;;7.40;3.23;;;12.70;99.90;;;;;;5035156;28;20180;-70
2021/12/31 04:42:34;;;;;;;5.53;3.20;;;12.70;99.90;;;;;;5034553;28;20235;-69
2021/12/31 04:44:59;;;;;;;7.67;3.30;;;12.70;99.90;;;;;;5035308;28;20726;-70
2021/12/31 04:47:25;;;;;;;5.90;3.20;;;12.70;99.90;;;;;;5035180;28;20217;-70
2021/12/31 04:49:50;;;;;;;7.50;3.60;;;12.70;99.90;;;;;;5034085;28;20209;-70
2021/12/31 04:52:16;;;;;;;5.33;3.43;;;12.60;99.90;;;;;;5034505;28;20173;-70
2021/12/31 04:54:42;;;;;;;4.77;3.20;;;12.60;99.90;;;;;;5034532;28;20280;-70
2021/12/31 04:57:07;;;;;;;7.07;3.50;;;12.60;99.90;;;;;;5034373;28;20170;-69
2021/12/31 04:59:33;;;;;;;7.00;3.20;;;12.60;99.90;;;;;;5035039;28;20567;-69
2021/12/31 05:01:58;;;;;;;6.57;3.33;;;12.60;99.90;;;;;;5035007;28;20571;-70
2021/12/31 05:04:24;;;;;;;6.27;3.40;;;12.60;99.90;;;;;;5033720;28;20556;-70
2021/12/31 05:06:50;;;;;;;7.93;3.63;;;12.60;99.90;;;;;;5034373;28;20288;-70
2021/12/31 05:09:16;;;;;;;6.40;2.90;;;12.60;99.90;;;;;;5034565;28;20174;-70
2021/12/31 05:11:42;;;;;;;4.20;3.03;;;12.70;99.90;;;;;;5034109;28;20174;-70
2021/12/31 05:14:08;;;;;;;8.60;3.33;;;12.60;99.90;;;;;;5034465;28;20177;-70
2021/12/31 05:16:35;;;;;;;4.40;3.47;;;12.60;99.90;;;;;;5034753;28;20174;-70
2021/12/31 05:19:02;;;;;;;6.40;2.93;;;12.60;99.90;;;;;;5034596;28;20182;-69
2021/12/31 05:21:28;;;;;;;4.37;3.00;;;12.60;99.90;;;;;;5034479;28;20213;-70
2021/12/31 05:23:54;;;;;;;7.17;3.10;;;12.60;99.90;;;;;;5033831;28;20229;-70
2021/12/31 05:26:19;;;;;;;7.40;3.03;;;12.60;99.90;;;;;;5033862;28;20610;-69
2021/12/31 05:28:45;;;;;;;4.00;2.87;;;12.60;99.90;;;;;;5033843;28;20174;-69
2021/12/31 05:31:10;;;;;;;6.93;3.03;;;12.60;99.90;;;;;;5034036;28;20263;-70
2021/12/31 05:33:36;;;;;;;4.87;2.87;;;12.60;99.90;;;;;;5034145;28;20178;-70
2021/12/31 05:36:02;;;;;;;3.27;2.47;;;12.60;99.90;;;;;;5034155;28;20174;-70
2021/12/31 05:38:27;;;;;;;5.07;2.73;;;12.60;99.90;;;;;;5033694;28;20181;-70
2021/12/31 05:40:53;;;;;;;3.10;2.80;;;12.60;99.90;;;;;;5033919;28;20245;-69
2021/12/31 05:43:19;;;;;;;3.80;2.90;;;12.60;99.90;;;;;;5033959;28;20178;-70
2021/12/31 05:45:44;;;;;;;4.57;3.03;;;12.60;99.90;;;;;;5033787;28;20174;-70
2021/12/31 05:48:10;;;;;;;4.17;2.73;;;12.60;99.90;;;;;;5033781;28;20188;-70
2021/12/31 05:50:36;;;;;;;4.67;2.87;;;12.60;99.90;;;;;;5034074;28;20657;-70
2021/12/31 05:53:01;;;;;;;3.13;2.57;;;12.60;99.90;;;;;;5032897;28;20605;-70
2021/12/31 05:55:28;;;;;;;4.00;2.50;;;12.60;99.90;;;;;;5033146;28;20194;-70
2021/12/31 05:57:55;;;;;;;6.63;3.17;;;12.70;99.90;;;;;;5033707;28;20170;-70
2021/12/31 06:00:24;;;;;;;4.73;2.77;;;12.70;99.90;;;;;;5033258;28;20170;-70
2021/12/31 06:02:50;;;;;;;5.00;2.70;;;12.70;99.90;;;;;;5033743;28;20223;-70
2021/12/31 06:05:15;;;;;;;6.90;2.77;;;12.70;99.90;;;;;;5032094;28;20570;-70
2021/12/31 06:07:41;;;;;;;2.83;2.57;;;12.70;99.90;;;;;;5033529;28;20213;-70
2021/12/31 06:10:07;;;;;;;4.23;2.63;;;12.70;99.90;;;;;;5033011;28;20169;-71
2021/12/31 06:12:36;;;;;;;3.67;2.83;;;12.60;99.90;;;;;;5033299;28;20178;-69
2021/12/31 06:15:04;;;;;;;3.23;2.37;;;12.60;99.90;;;;;;5033178;28;20244;-70
2021/12/31 06:17:31;;;;;;;3.80;2.60;;;12.70;99.90;;;;;;5033622;28;20180;-70
2021/12/31 06:19:57;;;;;;;4.60;2.70;;;12.60;99.90;;;;;;5033042;28;20206;-69
2021/12/31 06:22:24;;;;;;;3.20;2.53;;;12.60;99.90;;;;;;5032904;28;20181;-70
2021/12/31 06:24:50;;;;;;;4.43;2.43;;;12.70;99.90;;;;;;5032399;28;20689;-69
2021/12/31 06:27:16;;;;;;;3.53;2.23;;;12.70;99.90;;;;;;5032815;28;20515;-69
2021/12/31 06:29:42;;;;;;;4.50;2.47;;;12.70;99.90;;;;;;5033154;28;20170;-70
2021/12/31 06:32:08;;;;;;;3.97;2.30;;;12.70;99.90;;;;;;5032966;28;20696;-70
2021/12/31 06:34:34;;;;;;;6.23;2.70;;;12.70;99.90;;;;;;5033045;28;20205;-69
2021/12/31 06:36:59;;;;;;;2.90;2.37;;;12.70;99.90;;;;;;5033072;28;20185;-69
2021/12/31 06:39:26;;;;;;;3.03;2.30;;;12.70;99.90;;;;;;5032312;28;20185;-69
2021/12/31 06:41:52;;;;;;;3.83;2.27;;;12.70;99.90;;;;;;5032123;28;20220;-69
2021/12/31 06:44:18;;;;;;;4.73;2.43;;;12.70;99.90;;;;;;5032712;28;20174;-69
2021/12/31 06:46:44;;;;;;;3.80;2.23;;;12.80;99.90;;;;;;5031541;28;20701;-69
2021/12/31 06:49:09;;;;;;;4.73;2.33;;;12.90;99.90;;;;;;5032911;28;20212;-69
2021/12/31 06:51:35;;;;;;;2.93;2.20;;;12.90;99.90;;;;;;5032699;28;20200;-69
2021/12/31 06:54:01;;;;;;;3.20;2.40;;;12.80;99.90;;;;;;5032481;28;20186;-70
2021/12/31 06:56:26;;;;;;;2.60;2.40;;;12.80;99.90;;;;;;5032291;28;20738;-70
2021/12/31 06:58:52;;;;;;;5.23;2.27;;;12.80;99.90;;;;;;5030754;28;20174;-70
2021/12/31 07:01:18;;;;;;;4.67;2.60;;;12.80;99.90;;;;;;5032284;28;20173;-70
2021/12/31 07:03:43;;;;;;;3.27;2.07;;;12.80;99.90;;;;;;5031906;28;20201;-71
2021/12/31 07:06:09;;;;;;;4.83;2.50;;;12.80;99.90;;;;;;5032025;28;20205;-70
2021/12/31 07:08:35;;;;;;;3.93;2.20;;;12.80;99.90;;;;;;5032324;28;20170;-70
2021/12/31 07:11:00;;;;;;;2.70;2.00;;;12.80;99.90;;;;;;5032674;28;20228;-69
2021/12/31 07:13:26;;;;;;;5.33;2.00;;;12.80;99.90;;;;;;5032259;28;20480;-70
2021/12/31 07:15:52;;;;;;;3.00;2.57;;;12.90;99.90;;;;;;5032819;28;20169;-70
2021/12/31 07:18:20;;;;;;;2.50;2.07;;;12.90;99.90;;;;;;5031967;28;20243;-70
2021/12/31 07:20:46;;;;;;;4.10;2.27;;;12.90;99.90;;;;;;5031776;28;20185;-70
2021/12/31 07:23:15;;;;;;;4.23;2.33;;;12.90;99.90;;;;;;5032003;28;20217;-70
2021/12/31 07:25:41;;;;;;;4.00;2.70;;;13.00;99.90;;;;;;5032187;28;20327;-71
2021/12/31 07:28:08;;;;;;;3.90;2.50;;;12.90;99.90;;;;;;5032313;28;20649;-68
2021/12/31 07:30:34;;;;;;;4.37;2.30;;;12.90;99.90;;;;;;5032359;28;20181;-70
2021/12/31 07:33:00;;;;;;;3.83;2.63;;;12.80;99.90;;;;;;5031511;28;20591;-70
2021/12/31 07:35:26;;;;;;;2.97;2.43;;;12.70;99.90;;;;;;5031883;28;20296;-70
2021/12/31 07:37:55;;;;;;;6.53;2.30;;;12.70;99.90;;;;;;5032066;28;20345;-70
2021/12/31 07:40:37;;;;;;;4.47;2.80;;;12.80;99.90;;;;;;5030552;28;20542;-70
2021/12/31 07:43:04;;;;;;;5.03;2.67;;;12.80;99.90;;;;;;5032274;28;20162;-70
2021/12/31 07:45:30;;;;;;;5.23;2.40;;;12.80;99.90;;;;;;5032362;28;20281;-70
2021/12/31 07:47:55;;;;;;;3.50;2.60;;;12.70;99.90;;;;;;5031747;28;20724;-70
2021/12/31 07:50:21;;;;;;;9.53;2.70;;;12.70;99.90;;;;;;5031715;28;20501;-70
2021/12/31 07:52:46;;;;;;;4.77;2.50;;;12.70;99.90;;;;;;5034362;28;20313;-71
2021/12/31 07:55:12;;;;;;;3.13;2.40;;;12.70;99.90;;;;;;5035885;28;20182;-70
2021/12/31 07:57:38;;;;;;;3.27;2.53;;;12.70;99.90;;;;;;5035865;28;20166;-71
2021/12/31 08:00:06;;;;;;;4.33;2.73;;;12.60;99.90;;;;;;5035360;28;20169;-70
2021/12/31 08:02:31;;;;;;;3.77;2.80;;;12.70;99.90;;;;;;5035553;28;20178;-70
2021/12/31 08:04:57;;;;;;;5.67;2.70;;;12.80;99.90;;;;;;5035049;28;20638;-69
2021/12/31 08:07:23;;;;;;;4.23;3.13;;;12.80;99.90;;;;;;5035654;28;20222;-71
2021/12/31 08:09:48;;;;;;;3.37;2.53;;;12.70;99.90;;;;;;5035561;28;20213;-70
2021/12/31 08:12:14;;;;;;;5.03;3.00;;;12.70;99.90;;;;;;5035325;28;20538;-70
2021/12/31 08:14:39;;;;;;;4.60;2.30;;;12.70;99.90;;;;;;5035547;28;20201;-70
2021/12/31 08:17:05;;;;;;;4.20;2.80;;;12.80;99.90;;;;;;5035215;28;20257;-70
2021/12/31 08:19:30;;;;;;;3.93;2.47;;;12.90;99.90;;;;;;5034963;28;20174;-70
2021/12/31 08:21:56;;;;;;;5.93;2.60;;;13.00;99.90;;;;;;5035289;28;20173;-71
2021/12/31 08:24:22;;;;;;;3.13;2.40;;;12.90;99.90;;;;;;5034986;28;20249;-70
2021/12/31 08:26:48;;;;;;;3.60;2.80;;;13.00;99.90;;;;;;5035420;28;20206;-70
2021/12/31 08:29:15;;;;;;;3.13;2.23;;;13.00;99.90;;;;;;5035598;28;20524;-70
2021/12/31 08:31:41;;;;;;;5.60;3.10;;;13.10;99.90;;;;;;5034433;28;20181;-69
2021/12/31 08:34:08;;;;;;;4.03;2.83;;;13.10;99.90;;;;;;5034679;28;20633;-71
2021/12/31 08:36:35;;;;;;;5.47;2.50;;;13.20;99.90;;;;;;5033950;28;20174;-70
2021/12/31 08:39:01;;;;;;;3.00;2.70;;;13.20;99.90;;;;;;5034880;28;20166;-70
2021/12/31 08:41:26;;;;;;;3.20;2.73;;;13.20;99.90;;;;;;5033682;28;20206;-70
2021/12/31 08:43:52;;;;;;;4.47;2.40;;;13.30;99.90;;;;;;5034824;28;20573;-69
2021/12/31 08:46:18;;;;;;;5.43;2.63;;;13.40;99.90;;;;;;5034581;28;20214;-70
2021/12/31 08:48:44;;;;;;;3.53;2.93;;;13.50;99.90;;;;;;5034279;28;20177;-70
2021/12/31 08:51:09;;;;;;;2.80;2.20;;;13.40;99.90;;;;;;5034627;28;20209;-70
2021/12/31 08:53:35;;;;;;;3.97;2.33;;;13.40;99.90;;;;;;5034713;28;20174;-70
2021/12/31 08:56:00;;;;;;;6.20;2.73;;;13.50;99.90;;;;;;5034715;28;20197;-70
2021/12/31 08:58:26;;;;;;;4.17;3.30;;;13.60;99.90;;;;;;5034591;28;20589;-71
2021/12/31 09:00:51;;;;;;;4.50;2.90;;;13.80;99.90;;;;;;5033829;28;20178;-70
2021/12/31 09:03:17;;;;;;;2.77;2.20;;;14.00;99.90;;;;;;5032580;28;20166;-71
2021/12/31 09:05:43;;;;;;;3.10;2.50;;;14.00;99.90;;;;;;5034485;28;20574;-71
2021/12/31 09:08:08;;;;;;;3.20;2.20;;;14.00;99.90;;;;;;5034625;28;20185;-71
2021/12/31 09:10:34;;;;;;;4.50;2.37;;;14.00;99.90;;;;;;5034104;28;20759;-71
2021/12/31 09:12:59;;;;;;;3.43;2.60;;;14.00;99.90;;;;;;5034014;28;20177;-71
2021/12/31 09:15:25;;;;;;;4.73;2.57;;;13.90;99.90;;;;;;5033879;28;20170;-70
2021/12/31 09:17:51;;;;;;;3.87;2.03;;;13.90;99.90;;;;;;5032397;28;20232;-70
2021/12/31 09:20:17;;;;;;;3.53;2.37;;;13.80;99.90;;;;;;5032936;28;20174;-71
2021/12/31 09:22:42;;;;;;;2.60;2.40;;;13.60;99.90;;;;;;5034303;28;20170;-71
2021/12/31 09:25:08;;;;;;;2.80;2.30;;;13.50;99.90;;;;;;5033587;28;20218;-71
2021/12/31 09:27:34;;;;;;;2.90;2.50;;;13.60;99.90;;;;;;5034184;28;20742;-70
2021/12/31 09:29:59;;;;;;;4.57;2.40;;;13.70;99.90;;;;;;5033904;28;20559;-71
2021/12/31 09:32:25;;;;;;;2.40;2.20;;;13.70;99.90;;;;;;5033340;28;20174;-70
2021/12/31 09:34:51;;;;;;;2.27;1.97;;;13.70;99.90;;;;;;5034077;28;20210;-70
2021/12/31 09:37:18;;;;;;;4.93;2.40;;;13.70;99.90;;;;;;5033899;28;20180;-71
2021/12/31 09:39:44;;;;;;;3.33;2.63;;;13.70;99.90;;;;;;5034082;28;20185;-70
2021/12/31 09:42:10;;;;;;;2.70;2.40;;;13.60;99.90;;;;;;5033729;28;20207;-70
2021/12/31 09:44:37;;;;;;;3.63;2.43;;;13.60;99.90;;;;;;5033937;28;20181;-71
2021/12/31 09:47:09;;;;;;;4.60;2.70;;;13.60;99.90;;;;;;5033363;28;20213;-71
2021/12/31 09:49:36;;;;;;;3.40;2.60;;;13.60;99.90;;;;;;5033668;28;20214;-71
2021/12/31 09:52:02;;;;;;;3.17;2.27;;;13.50;99.90;;;;;;5033474;28;20668;-70
2021/12/31 09:54:27;;;;;;;3.77;2.40;;;13.50;99.90;;;;;;5033577;28;20181;-71
2021/12/31 09:56:53;;;;;;;3.53;2.30;;;13.50;99.90;;;;;;5033846;28;20249;-70
2021/12/31 09:59:19;;;;;;;3.67;2.20;;;13.50;99.90;;;;;;5032736;28;20216;-70
2021/12/31 10:01:50;;;;;;;5.17;2.73;;;13.50;99.90;;;;;;5032928;28;20209;-70
2021/12/31 10:04:15;;;;;;;3.47;2.97;;;13.50;99.90;;;;;;5031924;28;20174;-71
2021/12/31 10:07:06;;;;;;;3.30;3.00;;;13.50;99.90;;;;;;5033414;28;20216;-71
2021/12/31 10:09:32;;;;;;;5.50;3.10;;;13.50;99.90;;;;;;5032782;28;20538;-71
2021/12/31 10:11:58;;;;;;;4.23;2.93;;;13.50;99.90;;;;;;5032779;28;20177;-71
2021/12/31 10:14:38;;;;;;;3.53;2.67;;;13.50;99.90;;;;;;5033501;28;20170;-71
2021/12/31 10:17:06;;;;;;;3.77;2.80;;;13.80;99.90;;;;;;5032951;28;20260;-71
2021/12/31 10:19:31;;;;;;;2.90;2.70;;;13.90;99.90;;;;;;5032873;28;20208;-71
2021/12/31 10:21:58;;;;;;;5.93;4.10;;;14.10;99.90;;;;;;5033241;28;20190;-71
2021/12/31 10:24:38;;;;;;;3.93;2.67;;;14.40;99.90;;;;;;5032793;28;20229;-71
2021/12/31 10:27:20;;;;;;;3.57;2.80;;;14.70;99.90;;;;;;5033027;28;20241;-73
2021/12/31 10:30:06;;;;;;;3.67;2.23;;;14.90;99.90;;;;;;5032448;28;20174;-71
2021/12/31 10:32:36;;;;;;;4.37;3.07;;;15.20;99.90;;;;;;5031277;28;20180;-72
2021/12/31 10:35:13;;;;;;;5.50;2.85;;;15.80;99.90;;;;;;5031468;28;20181;-72
2021/12/31 10:37:51;;;;;;;3.83;2.40;;;16.60;99.90;;;;;;5032919;28;20169;-72
2021/12/31 10:40:41;;;;;;;4.97;3.65;;;17.50;99.90;;;;;;5031780;28;20208;-73
2021/12/31 10:43:21;;;;;;;5.10;2.28;;;17.50;99.90;;;;;;5034896;28;20182;-73
2021/12/31 10:46:09;;;;;;;2.85;2.05;;;17.10;99.90;;;;;;5032615;28;20688;-71
2021/12/31 10:48:46;;;;;;;2.95;2.08;;;17.00;99.90;;;;;;5032325;28;20185;-71
2021/12/31 10:51:14;;;;;;;2.97;1.90;;;16.90;99.90;;;;;;5032851;28;20169;-72
2021/12/31 10:53:43;;;;;;;3.65;2.08;;;16.80;99.90;;;;;;5032601;28;20261;-72
2021/12/31 10:56:12;;;;;;;2.72;2.28;;;16.60;99.90;;;;;;5032192;28;20196;-71
2021/12/31 10:58:39;;;;;;;2.65;2.45;;;16.60;99.90;;;;;;5030718;28;20257;-71
2021/12/31 11:01:07;;;;;;;3.03;2.45;;;16.30;99.90;;;;;;5032314;28;20184;-72
2021/12/31 11:03:35;;;;;;;3.08;2.65;;;16.10;99.90;;;;;;5032380;28;20166;-71
2021/12/31 11:06:02;;;;;;;2.97;2.30;;;16.30;99.90;;;;;;5031951;28;20609;-72
2021/12/31 11:08:29;;;;;;;2.88;2.50;;;16.30;99.90;;;;;;5032077;28;20680;-71
2021/12/31 11:10:57;;;;;;;3.03;2.40;;;16.20;99.90;;;;;;5032095;28;20185;-71
2021/12/31 11:13:28;;;;;;;4.00;2.10;;;16.40;99.90;;;;;;5031511;28;20253;-70
2021/12/31 11:15:55;;;;;;;2.20;2.00;;;16.50;99.90;;;;;;5032688;28;20173;-71
2021/12/31 11:18:23;;;;;;;7.45;2.72;;;16.70;99.90;;;;;;5032225;28;20174;-70
2021/12/31 11:20:51;;;;;;;4.53;2.42;;;17.00;99.90;;;;;;5032247;28;20632;-70
2021/12/31 11:23:22;;;;;;;3.35;2.60;;;16.90;99.90;;;;;;5030842;28;20226;-73
2021/12/31 11:25:56;;;;;;;3.22;2.80;;;16.90;99.90;;;;;;5032492;28;20172;-72
2021/12/31 11:28:30;;;;;;;4.38;2.60;;;16.70;99.90;;;;;;5035240;28;20216;-72
2021/12/31 11:31:16;;;;;;;3.20;2.40;;;16.40;99.90;;;;;;5035889;28;20181;-71
2021/12/31 11:33:43;;;;;;;3.28;2.97;;;16.50;99.90;;;;;;5036219;28;20249;-72
2021/12/31 11:36:11;;;;;;;5.10;3.20;;;16.50;99.90;;;;;;5036637;28;20181;-72
2021/12/31 11:38:45;;;;;;;2.90;2.50;;;16.60;99.90;;;;;;5034785;28;20169;-72
2021/12/31 11:41:20;;;;;;;3.40;2.33;;;16.60;99.90;;;;;;5035818;28;20170;-71
2021/12/31 11:44:07;;;;;;;3.20;2.40;;;16.70;99.90;;;;;;5035630;28;20162;-71
2021/12/31 11:46:35;;;;;;;3.47;2.72;;;16.50;99.90;;;;;;5035735;28;20233;-72
2021/12/31 11:49:03;;;;;;;4.53;3.13;;;16.50;99.90;;;;;;5035454;28;20189;-73
2021/12/31 11:51:36;;;;;;;4.40;2.95;;;16.40;99.90;;;;;;5035563;28;20661;-72
2021/12/31 11:54:06;;;;;;;5.65;4.30;;;16.50;99.90;;;;;;5035953;28;20174;-72
2021/12/31 11:56:45;;;;;;;4.95;3.00;;;16.90;99.90;;;;;;5035377;28;20197;-72
2021/12/31 11:59:14;;;;;;;3.33;2.55;;;16.90;99.90;;;;;;5035379;28;20282;-71
2021/12/31 12:01:51;;;;;;;3.63;2.75;;;16.80;99.90;;;;;;5035099;28;20166;-71
2021/12/31 12:04:20;;;;;;;3.40;2.53;;;17.10;99.90;;;;;;5034925;28;20180;-71
2021/12/31 12:07:10;;;;;;;2.97;2.60;;;17.20;99.90;;;;;;5035664;28;20212;-71
2021/12/31 12:09:35;;;;;;;2.63;2.38;;;17.10;99.90;;;;;;5035482;28;20169;-71
2021/12/31 12:12:11;;;;;;;3.55;2.40;;;17.30;99.90;;;;;;5034478;28;20257;-71
2021/12/31 12:14:49;;;;;;;3.00;2.63;;;17.70;99.90;;;;;;5035504;28;20204;-71
2021/12/31 12:17:17;;;;;;;3.53;2.63;;;17.70;99.90;;;;;;5035502;28;20220;-72
2021/12/31 12:19:51;;;;;;;4.28;2.90;;;17.90;99.90;;;;;;5035143;28;20184;-70
2021/12/31 12:22:27;;;;;;;4.97;2.97;;;18.10;99.90;;;;;;5035048;28;20181;-72
2021/12/31 12:24:57;;;;;;;2.90;2.70;;;17.90;99.90;;;;;;5034805;28;20260;-71
2021/12/31 12:27:24;;;;;;;3.40;2.40;;;17.70;99.90;;;;;;5034842;28;20673;-71
2021/12/31 12:29:51;;;;;;;2.72;2.53;;;17.50;99.90;;;;;;5034961;28;20177;-71
2021/12/31 12:32:29;;;;;;;3.45;2.53;;;17.10;99.90;;;;;;5034904;28;20637;-72
2021/12/31 12:34:54;;;;;;;5.57;3.17;;;16.90;99.90;;;;;;5034976;28;20181;-72
2021/12/31 12:37:29;;;;;;;3.47;2.53;;;16.60;99.90;;;;;;5034278;28;20174;-72
2021/12/31 12:40:03;;;;;;;3.10;2.80;;;16.50;99.90;;;;;;5033692;28;20173;-72
2021/12/31 12:42:29;;;;;;;5.80;3.10;;;16.30;99.90;;;;;;5034325;28;20176;-71
2021/12/31 12:45:06;;;;;;;2.85;2.65;;;16.20;99.90;;;;;;5035021;28;20521;-72
2021/12/31 12:47:32;;;;;;;3.35;2.78;;;16.00;99.90;;;;;;5035211;28;20213;-71
2021/12/31 12:49:59;;;;;;;4.88;2.90;;;15.90;99.90;;;;;;5034248;28;20174;-71
2021/12/31 12:52:26;;;;;;;3.78;2.97;;;15.90;99.90;;;;;;5033916;28;20170;-72